This is the latest recevied weather packets stored in our database for station/object OE3MHU-12. If no packets are shown the sender has not sent any weather packets the latest 10 day(s).
| Time | Temp. | Humidity | Pressure | Rain* | Wind** | Luminosity | Snow |
|---|---|---|---|---|---|---|---|
| 1776938188 | 14.44° C | 42% | 1022.6 hPa | 0 mm | - | - | - |
| 1776936388 | 13.89° C | 38% | 1023 hPa | 0 mm | - | - | - |
| 1776934588 | 13.33° C | 45% | 1023.4 hPa | 0 mm | - | - | - |
| 1776932788 | 12.78° C | 44% | 1023.9 hPa | 0 mm | - | - | - |
| 1776930988 | 11.67° C | 48% | 1023.9 hPa | 0 mm | - | - | - |
| 1776929189 | 11.11° C | 52% | 1024 hPa | 0 mm | - | - | - |
| 1776925589 | 8.33° C | 63% | 1024 hPa | 0 mm | - | - | - |
| 1776923789 | 6.11° C | 67% | 1024.4 hPa | 0 mm | - | - | - |
| 1776921989 | 3.89° C | 73% | 1024.2 hPa | 0 mm | - | - | - |
| 1776920189 | 2.78° C | 74% | 1024.2 hPa | 0 mm | - | - | - |
| 1776918389 | 2.78° C | 74% | 1024.1 hPa | 0 mm | - | - | - |
| 1776916589 | 2.22° C | 76% | 1024.1 hPa | 0 mm | - | - | - |
| 1776914789 | 2.22° C | 75% | 1024.1 hPa | 0 mm | - | - | - |
| 1776912989 | 2.22° C | 75% | 1024.3 hPa | 0 mm | - | - | - |
| 1776911189 | 2.22° C | 76% | 1024.3 hPa | 0 mm | - | - | - |
| 1776909389 | 1.67° C | 76% | 1024.3 hPa | 0 mm | - | - | - |
| 1776907589 | 1.67° C | 75% | 1024.4 hPa | 0 mm | - | - | - |
| 1776905790 | 2.22° C | 75% | 1024.6 hPa | 0 mm | - | - | - |
| 1776903990 | 2.22° C | 76% | 1024.5 hPa | 0 mm | - | - | - |
| 1776902190 | 1.67° C | 76% | 1024.6 hPa | 0 mm | - | - | - |
| 1776900390 | 2.22° C | 74% | 1024.8 hPa | 0 mm | - | - | - |
| 1776898590 | 2.22° C | 73% | 1024.6 hPa | 0 mm | - | - | - |
| 1776896790 | 2.78° C | 71% | 1024.6 hPa | 0 mm | - | - | - |
| 1776894990 | 3.33° C | 71% | 1024.3 hPa | 0 mm | - | - | - |
| 1776893235 | 3.33° C | 70% | 1024.1 hPa | 0 mm | - | - | - |
* Rain latest hour (hover to see other rain measurements)
** Current wind speed in m/s (hover to see current wind gust speed)